createdAt,value
2023-02-28T00:01:28.290Z,2.70
2023-02-28T00:03:56.077Z,2.70
2023-02-28T00:06:25.075Z,2.70
2023-02-28T00:08:52.518Z,2.70
2023-02-28T00:11:19.943Z,2.70
2023-02-28T00:13:48.474Z,2.80
2023-02-28T00:16:23.985Z,2.80
2023-02-28T00:18:51.699Z,2.80
2023-02-28T00:21:20.975Z,2.80
2023-02-28T00:23:48.696Z,2.80
2023-02-28T00:26:16.164Z,2.80
2023-02-28T00:28:46.469Z,2.80
2023-02-28T00:31:13.813Z,2.90
2023-02-28T00:33:41.305Z,2.90
2023-02-28T00:36:11.029Z,2.90
2023-02-28T00:38:40.293Z,3.00
2023-02-28T00:41:08.311Z,3.00
2023-02-28T00:43:38.197Z,3.00
2023-02-28T00:46:06.380Z,3.00
2023-02-28T00:48:34.140Z,3.00
2023-02-28T00:51:01.926Z,3.00
2023-02-28T00:53:30.292Z,3.00
2023-02-28T00:55:59.430Z,3.00
2023-02-28T00:58:27.496Z,3.00
2023-02-28T01:00:55.857Z,3.00
2023-02-28T01:03:23.853Z,3.00
2023-02-28T01:05:52.104Z,3.00
2023-02-28T01:08:19.709Z,3.00
2023-02-28T01:10:47.208Z,3.00
2023-02-28T01:13:15.136Z,3.00
2023-02-28T01:15:47.416Z,3.00
2023-02-28T01:18:14.707Z,3.00
2023-02-28T01:20:42.034Z,3.00
2023-02-28T01:23:10.431Z,3.10
2023-02-28T01:25:38.697Z,3.10
2023-02-28T01:28:06.879Z,3.10
2023-02-28T01:30:35.382Z,3.20
2023-02-28T01:33:02.951Z,3.20
2023-02-28T01:35:33.285Z,3.20
2023-02-28T01:38:09.532Z,3.30
2023-02-28T01:40:43.186Z,3.40
2023-02-28T01:43:25.622Z,3.50
2023-02-28T01:45:57.973Z,3.60
2023-02-28T01:48:32.222Z,3.60
2023-02-28T01:51:06.426Z,3.60
2023-02-28T01:53:40.185Z,3.70
2023-02-28T01:56:10.274Z,3.70
2023-02-28T01:58:38.089Z,3.70
2023-02-28T02:01:05.516Z,3.80
2023-02-28T02:03:36.673Z,3.80
2023-02-28T02:06:04.222Z,3.80
2023-02-28T02:08:31.574Z,3.80
2023-02-28T02:11:01.790Z,3.80
2023-02-28T02:14:04.585Z,3.80
2023-02-28T02:17:03.680Z,3.80
2023-02-28T02:20:16.412Z,3.70
2023-02-28T02:23:21.697Z,3.70
2023-02-28T02:25:55.084Z,3.60
2023-02-28T02:28:50.713Z,3.60
2023-02-28T02:31:46.186Z,3.70
2023-02-28T02:34:25.824Z,3.70
2023-02-28T02:36:57.826Z,3.70
2023-02-28T02:39:32.942Z,3.80
2023-02-28T02:42:03.704Z,3.80
2023-02-28T02:44:49.094Z,3.90
2023-02-28T02:47:21.824Z,3.90
2023-02-28T02:49:53.428Z,3.90
2023-02-28T02:52:30.779Z,3.80
2023-02-28T02:54:59.275Z,3.70
2023-02-28T02:57:46.392Z,3.70
2023-02-28T03:00:18.773Z,3.60
2023-02-28T03:02:50.252Z,3.50
2023-02-28T03:05:33.155Z,3.40
2023-02-28T03:08:03.105Z,3.40
2023-02-28T03:10:39.634Z,3.30
2023-02-28T03:13:18.411Z,3.30
2023-02-28T03:16:18.082Z,3.20
2023-02-28T03:19:00.021Z,3.20
2023-02-28T03:21:41.741Z,3.10
2023-02-28T03:24:24.203Z,3.00
2023-02-28T03:27:02.742Z,3.00
2023-02-28T03:29:40.108Z,3.00
2023-02-28T03:32:27.957Z,3.00
2023-02-28T03:35:15.399Z,3.10
2023-02-28T03:37:45.968Z,3.20
2023-02-28T03:40:18.134Z,3.30
2023-02-28T03:42:49.044Z,3.40
2023-02-28T03:45:27.014Z,3.50
2023-02-28T03:47:58.917Z,3.50
2023-02-28T03:50:37.009Z,3.50
2023-02-28T03:53:20.561Z,3.50
2023-02-28T03:55:58.003Z,3.50
2023-02-28T03:58:38.254Z,3.60
2023-02-28T04:01:24.544Z,3.60
2023-02-28T04:03:51.990Z,3.60
2023-02-28T04:06:22.357Z,3.70
2023-02-28T04:08:50.356Z,3.60
2023-02-28T04:11:26.331Z,3.50
2023-02-28T04:13:53.689Z,3.50
2023-02-28T04:16:33.986Z,3.40
2023-02-28T04:19:06.726Z,3.30
2023-02-28T04:21:37.164Z,3.10
2023-02-28T04:24:05.194Z,3.00
2023-02-28T04:26:34.619Z,3.00
2023-02-28T04:29:03.196Z,2.80
2023-02-28T04:31:30.969Z,2.80
2023-02-28T04:33:58.823Z,2.80
2023-02-28T04:36:26.153Z,2.70
2023-02-28T04:38:53.699Z,2.70
2023-02-28T04:41:23.702Z,2.70
2023-02-28T04:43:53.711Z,2.60
2023-02-28T04:46:21.813Z,2.50
2023-02-28T04:48:50.004Z,2.50
2023-02-28T04:51:19.809Z,2.40
2023-02-28T04:53:49.171Z,2.40
2023-02-28T04:56:18.740Z,2.40
2023-02-28T04:58:46.771Z,2.30
2023-02-28T05:01:25.182Z,2.30
2023-02-28T05:03:54.212Z,2.30
2023-02-28T05:06:24.790Z,2.40
2023-02-28T05:08:53.297Z,2.40
2023-02-28T05:11:35.804Z,2.30
2023-02-28T05:14:13.982Z,2.40
2023-02-28T05:16:41.535Z,2.40
2023-02-28T05:19:09.043Z,2.40
2023-02-28T05:21:39.236Z,2.40
2023-02-28T05:24:10.200Z,2.40
2023-02-28T05:26:39.324Z,2.40
2023-02-28T05:29:07.201Z,2.40
2023-02-28T05:31:35.261Z,2.50
2023-02-28T05:34:05.187Z,2.40
2023-02-28T05:36:33.447Z,2.40
2023-02-28T05:39:00.690Z,2.40
2023-02-28T05:41:28.767Z,2.40
2023-02-28T05:43:56.411Z,2.50
2023-02-28T05:46:23.998Z,2.40
2023-02-28T05:48:51.843Z,2.40
2023-02-28T05:51:19.238Z,2.30
2023-02-28T05:53:46.734Z,2.30
2023-02-28T05:56:14.133Z,2.20
2023-02-28T05:58:41.521Z,2.10
2023-02-28T06:01:24.217Z,2.10
2023-02-28T06:03:51.946Z,2.10
2023-02-28T06:06:19.479Z,2.10
2023-02-28T06:08:47.078Z,2.20
2023-02-28T06:11:14.861Z,2.40
2023-02-28T06:13:42.961Z,2.50
2023-02-28T06:16:12.428Z,2.70
2023-02-28T06:18:40.336Z,2.80
2023-02-28T06:21:08.065Z,3.00
2023-02-28T06:23:35.350Z,3.10
2023-02-28T06:26:02.989Z,3.20
2023-02-28T06:28:30.368Z,3.40
2023-02-28T06:30:57.618Z,3.50
2023-02-28T06:33:24.895Z,3.60
2023-02-28T06:35:53.117Z,3.70
2023-02-28T06:38:20.654Z,3.80
2023-02-28T06:40:55.024Z,4.00
2023-02-28T06:43:23.239Z,4.20
2023-02-28T06:45:50.752Z,4.40
2023-02-28T06:48:18.872Z,4.60
2023-02-28T06:50:46.369Z,4.80
2023-02-28T06:53:14.061Z,4.90
2023-02-28T06:55:42.306Z,4.90
2023-02-28T06:58:15.794Z,4.90
2023-02-28T07:00:44.841Z,4.90
2023-02-28T07:03:13.290Z,5.00
2023-02-28T07:05:40.878Z,5.00
2023-02-28T07:08:08.395Z,5.10
2023-02-28T07:10:37.718Z,5.30
2023-02-28T07:13:06.497Z,5.40
2023-02-28T07:15:33.870Z,5.40
2023-02-28T07:18:01.250Z,5.50
2023-02-28T07:20:28.587Z,5.60
2023-02-28T07:22:58.726Z,5.70
2023-02-28T07:25:29.975Z,5.70
2023-02-28T07:27:58.337Z,5.80
2023-02-28T07:30:25.788Z,5.70
2023-02-28T07:32:53.129Z,5.70
2023-02-28T07:35:20.416Z,5.70
2023-02-28T07:37:48.257Z,5.80
2023-02-28T07:40:15.960Z,5.80
2023-02-28T07:42:43.693Z,5.90
2023-02-28T07:45:12.758Z,6.00
2023-02-28T07:47:40.301Z,6.20
2023-02-28T07:50:09.410Z,6.40
2023-02-28T07:52:38.499Z,6.50
2023-02-28T07:55:07.215Z,6.50
2023-02-28T07:57:34.810Z,6.60
2023-02-28T08:00:04.497Z,6.60
2023-02-28T08:02:38.974Z,6.70
2023-02-28T08:05:07.357Z,6.90
2023-02-28T08:07:34.635Z,7.10
2023-02-28T08:10:01.984Z,7.20
2023-02-28T08:12:29.301Z,7.40
2023-02-28T08:14:56.616Z,7.40
2023-02-28T08:17:24.079Z,7.40
2023-02-28T08:19:51.325Z,7.30
2023-02-28T08:22:18.630Z,7.40
2023-02-28T08:24:46.016Z,7.50
2023-02-28T08:27:14.074Z,7.60
2023-02-28T08:29:41.849Z,7.80
2023-02-28T08:32:17.418Z,7.90
2023-02-28T08:34:50.983Z,7.80
2023-02-28T08:37:18.515Z,7.80
2023-02-28T08:39:45.817Z,7.80
2023-02-28T08:42:13.288Z,7.80
2023-02-28T08:44:41.654Z,7.70
2023-02-28T08:47:09.203Z,7.60
2023-02-28T08:49:38.421Z,7.50
2023-02-28T08:52:05.696Z,7.30
2023-02-28T08:54:34.279Z,7.20
2023-02-28T08:57:01.691Z,7.10
2023-02-28T08:59:29.048Z,6.90
2023-02-28T09:01:56.517Z,6.70
2023-02-28T09:04:25.354Z,6.70
2023-02-28T09:06:52.872Z,6.70
2023-02-28T09:09:20.100Z,6.70
2023-02-28T09:11:47.400Z,6.80
2023-02-28T09:14:15.100Z,6.90
2023-02-28T09:16:42.628Z,7.10
2023-02-28T09:19:13.049Z,7.20
2023-02-28T09:21:40.367Z,7.40
2023-02-28T09:24:08.822Z,7.60
2023-02-28T09:26:43.266Z,7.80
2023-02-28T09:29:19.303Z,8.00
2023-02-28T09:31:46.665Z,8.30
2023-02-28T09:34:14.186Z,8.50
2023-02-28T09:36:45.706Z,8.70
2023-02-28T09:39:16.753Z,8.80
2023-02-28T09:41:51.564Z,9.00
2023-02-28T09:44:39.814Z,9.10
2023-02-28T09:47:25.525Z,9.20
2023-02-28T09:49:53.065Z,9.40
2023-02-28T09:52:27.218Z,9.70
2023-02-28T09:54:54.522Z,10.00
2023-02-28T09:57:32.834Z,10.00
2023-02-28T10:00:22.027Z,10.00
2023-02-28T10:03:01.740Z,10.00
2023-02-28T10:05:54.960Z,10.20
2023-02-28T10:08:31.011Z,10.30
2023-02-28T10:11:08.735Z,10.40
2023-02-28T10:13:42.189Z,10.40
2023-02-28T10:16:15.321Z,10.30
2023-02-28T10:18:49.842Z,10.30
2023-02-28T10:21:31.261Z,10.10
2023-02-28T10:26:48.281Z,9.80
2023-02-28T10:29:16.386Z,9.70
2023-02-28T10:31:43.963Z,9.50
2023-02-28T10:34:13.663Z,9.40
2023-02-28T10:36:43.985Z,9.40
2023-02-28T10:39:43.892Z,9.30
2023-02-28T10:42:29.620Z,9.20
2023-02-28T10:45:14.971Z,9.10
2023-02-28T10:48:05.315Z,9.10
2023-02-28T10:50:51.050Z,9.00
2023-02-28T10:53:27.116Z,9.10
2023-02-28T10:56:09.710Z,9.00
2023-02-28T10:58:55.602Z,8.90
2023-02-28T11:01:49.984Z,8.90
2023-02-28T11:04:20.568Z,8.80
2023-02-28T11:06:48.661Z,8.70
2023-02-28T11:09:35.969Z,8.80
2023-02-28T11:12:29.183Z,8.90
2023-02-28T11:15:06.727Z,9.10
2023-02-28T11:17:34.573Z,9.30
2023-02-28T11:20:22.770Z,9.30
2023-02-28T11:22:52.626Z,9.50
2023-02-28T11:25:29.977Z,9.70
2023-02-28T11:28:01.951Z,9.60
2023-02-28T11:30:37.868Z,9.50
2023-02-28T11:33:53.186Z,9.40
2023-02-28T11:36:27.742Z,9.50
2023-02-28T11:38:57.233Z,9.50
2023-02-28T11:41:36.141Z,9.50
2023-02-28T11:44:22.305Z,9.70
2023-02-28T11:46:52.766Z,9.70
2023-02-28T11:49:55.057Z,9.80
2023-02-28T11:52:37.664Z,9.80
2023-02-28T11:55:28.832Z,9.90
2023-02-28T11:58:12.527Z,10.00
2023-02-28T12:00:51.327Z,10.00
2023-02-28T12:03:29.769Z,10.00
2023-02-28T12:06:19.517Z,10.00
2023-02-28T12:09:17.209Z,10.10
2023-02-28T12:11:57.973Z,10.00
2023-02-28T12:14:40.525Z,9.70
2023-02-28T12:17:20.877Z,9.50
2023-02-28T12:20:00.946Z,9.40
2023-02-28T12:22:44.312Z,9.50
2023-02-28T12:25:33.143Z,9.80
2023-02-28T12:28:01.235Z,10.00
2023-02-28T12:30:32.216Z,10.00
2023-02-28T12:33:04.580Z,10.00
2023-02-28T12:35:39.735Z,10.20
2023-02-28T12:38:15.659Z,10.20
2023-02-28T12:40:50.213Z,10.20
2023-02-28T12:43:19.881Z,10.30
2023-02-28T12:45:52.872Z,10.20
2023-02-28T12:48:32.410Z,10.20
2023-02-28T12:51:03.200Z,10.00
2023-02-28T12:54:01.522Z,10.00
2023-02-28T12:56:56.780Z,10.00
2023-02-28T12:59:32.538Z,10.00
2023-02-28T13:02:20.964Z,9.90
2023-02-28T13:04:50.938Z,9.80
2023-02-28T13:07:18.177Z,9.80
2023-02-28T13:10:07.268Z,9.90
2023-02-28T13:12:35.910Z,10.00
2023-02-28T13:15:22.449Z,9.90
2023-02-28T13:17:54.377Z,9.80
2023-02-28T13:20:33.461Z,9.70
2023-02-28T13:23:02.276Z,9.80
2023-02-28T13:25:35.469Z,10.00
2023-02-28T13:28:09.425Z,10.20
2023-02-28T13:30:56.621Z,10.30
2023-02-28T13:33:34.803Z,10.30
2023-02-28T13:36:08.041Z,10.40
2023-02-28T13:38:38.936Z,10.40
2023-02-28T13:41:37.132Z,10.30
2023-02-28T13:44:23.847Z,10.20
2023-02-28T13:46:51.773Z,10.30
2023-02-28T13:49:23.903Z,10.40
2023-02-28T13:52:07.390Z,10.30
2023-02-28T13:55:12.778Z,10.30
2023-02-28T13:58:13.875Z,10.30
2023-02-28T14:01:00.251Z,10.40
2023-02-28T14:03:49.059Z,10.50
2023-02-28T14:06:33.435Z,10.60
2023-02-28T14:09:24.394Z,10.60
2023-02-28T14:11:52.357Z,10.60
2023-02-28T14:14:37.334Z,10.50
2023-02-28T14:17:13.547Z,10.40
2023-02-28T14:19:44.760Z,10.30
2023-02-28T14:22:40.014Z,10.40
2023-02-28T14:25:13.221Z,10.40
2023-02-28T14:27:59.612Z,10.30
2023-02-28T14:31:10.862Z,10.10
2023-02-28T14:34:06.289Z,10.00
2023-02-28T14:36:36.124Z,10.00
2023-02-28T14:39:12.814Z,9.90
2023-02-28T14:41:42.046Z,10.00
2023-02-28T14:44:27.037Z,10.00
2023-02-28T14:47:07.325Z,10.20
2023-02-28T14:49:43.534Z,10.20
2023-02-28T14:52:10.863Z,10.30
2023-02-28T14:54:39.715Z,10.40
2023-02-28T14:57:07.448Z,10.30
2023-02-28T14:59:36.989Z,10.30
2023-02-28T15:02:19.602Z,10.20
2023-02-28T15:04:58.947Z,10.20
2023-02-28T15:07:29.870Z,10.10
2023-02-28T15:10:10.550Z,10.10
2023-02-28T15:12:40.069Z,10.00
2023-02-28T15:15:15.802Z,9.90
2023-02-28T15:17:47.505Z,9.80
2023-02-28T15:20:16.990Z,9.60
2023-02-28T15:22:46.587Z,9.50
2023-02-28T15:25:18.980Z,9.30
2023-02-28T15:27:50.686Z,9.20
2023-02-28T15:30:22.410Z,9.10
2023-02-28T15:33:07.329Z,9.00
2023-02-28T15:35:35.361Z,9.00
2023-02-28T15:38:15.505Z,9.00
2023-02-28T15:40:54.511Z,8.90
2023-02-28T15:43:32.197Z,8.90
2023-02-28T15:46:14.238Z,9.00
2023-02-28T15:48:56.338Z,9.00
2023-02-28T15:51:44.077Z,9.00
2023-02-28T15:54:21.576Z,9.10
2023-02-28T15:56:53.876Z,9.00
2023-02-28T15:59:25.757Z,9.00
2023-02-28T16:02:11.506Z,8.90
2023-02-28T16:04:56.403Z,8.80
2023-02-28T16:07:23.902Z,8.80
2023-02-28T16:09:51.822Z,8.70
2023-02-28T16:12:20.029Z,8.60
2023-02-28T16:14:54.376Z,8.60
2023-02-28T16:17:27.580Z,8.50
2023-02-28T16:19:55.725Z,8.50
2023-02-28T16:22:23.372Z,8.40
2023-02-28T16:24:50.869Z,8.30
2023-02-28T16:27:27.657Z,8.30
2023-02-28T16:29:55.185Z,8.20
2023-02-28T16:32:22.682Z,8.10
2023-02-28T16:34:49.966Z,8.00
2023-02-28T16:37:19.110Z,7.90
2023-02-28T16:39:46.919Z,7.90
2023-02-28T16:42:27.937Z,7.80
2023-02-28T16:44:57.149Z,7.70
2023-02-28T16:47:24.959Z,7.60
2023-02-28T16:49:52.555Z,7.60
2023-02-28T16:52:19.943Z,7.50
2023-02-28T16:54:47.233Z,7.40
2023-02-28T16:57:24.480Z,7.40
2023-02-28T16:59:51.960Z,7.30
2023-02-28T17:02:20.742Z,7.20
2023-02-28T17:04:48.433Z,7.10
2023-02-28T17:07:17.659Z,7.10
2023-02-28T17:09:46.808Z,7.00
2023-02-28T17:12:15.330Z,7.00
2023-02-28T17:14:42.813Z,6.90
2023-02-28T17:17:22.087Z,6.90
2023-02-28T17:19:49.538Z,6.80
2023-02-28T17:22:16.817Z,6.80
2023-02-28T17:24:44.122Z,6.70
2023-02-28T17:27:14.103Z,6.60
2023-02-28T17:29:42.841Z,6.60
2023-02-28T17:32:17.956Z,6.50
2023-02-28T17:34:46.887Z,6.50
2023-02-28T17:37:14.440Z,6.40
2023-02-28T17:39:41.820Z,6.30
2023-02-28T17:42:09.053Z,6.20
2023-02-28T17:44:36.509Z,6.10
2023-02-28T17:47:04.093Z,6.00
2023-02-28T17:49:31.534Z,5.90
2023-02-28T17:51:58.967Z,5.90
2023-02-28T17:54:26.202Z,5.80
2023-02-28T17:56:53.470Z,5.60
2023-02-28T17:59:20.696Z,5.40
2023-02-28T18:01:48.146Z,5.30
2023-02-28T18:04:15.436Z,5.30
2023-02-28T18:06:48.754Z,5.20
2023-02-28T18:09:18.700Z,5.10
2023-02-28T18:11:51.720Z,5.00
2023-02-28T18:14:21.761Z,4.90
2023-02-28T18:16:49.055Z,4.80
2023-02-28T18:19:17.886Z,4.80
2023-02-28T18:21:47.117Z,4.70
2023-02-28T18:24:16.109Z,4.80
2023-02-28T18:26:44.189Z,4.80
2023-02-28T18:29:22.015Z,4.70
2023-02-28T18:31:49.982Z,4.70
2023-02-28T18:34:17.520Z,4.60
2023-02-28T18:36:47.104Z,4.60
2023-02-28T18:39:15.641Z,4.60
2023-02-28T18:41:43.193Z,4.60
2023-02-28T18:44:19.878Z,4.60
2023-02-28T18:46:49.159Z,4.60
2023-02-28T18:49:17.740Z,4.60
2023-02-28T18:51:46.454Z,4.60
2023-02-28T18:54:15.144Z,4.60
2023-02-28T18:56:43.229Z,4.60
2023-02-28T18:59:11.292Z,4.60
2023-02-28T19:01:38.709Z,4.60
2023-02-28T19:04:06.652Z,4.60
2023-02-28T19:06:34.905Z,4.60
2023-02-28T19:09:04.029Z,4.50
2023-02-28T19:11:32.205Z,4.50
2023-02-28T19:13:59.708Z,4.50
2023-02-28T19:16:28.273Z,4.50
2023-02-28T19:18:57.413Z,4.40
2023-02-28T19:21:25.951Z,4.40
2023-02-28T19:23:53.854Z,4.30
2023-02-28T19:26:24.046Z,4.20
2023-02-28T19:28:51.482Z,4.10
2023-02-28T19:31:22.203Z,4.00
2023-02-28T19:33:50.757Z,4.00
2023-02-28T19:36:18.207Z,3.90
2023-02-28T19:38:45.686Z,3.90
2023-02-28T19:41:14.739Z,3.80
2023-02-28T19:43:42.362Z,3.70
2023-02-28T19:46:10.145Z,3.70
2023-02-28T19:48:37.928Z,3.70
2023-02-28T19:51:10.986Z,3.60
2023-02-28T19:53:40.282Z,3.60
2023-02-28T19:56:08.503Z,3.50
2023-02-28T19:58:36.651Z,3.50
2023-02-28T20:01:16.012Z,3.40
2023-02-28T20:03:46.875Z,3.40
2023-02-28T20:06:14.420Z,3.30
2023-02-28T20:08:42.343Z,3.30
2023-02-28T20:11:16.027Z,3.30
2023-02-28T20:13:44.576Z,3.30
2023-02-28T20:16:13.810Z,3.20
2023-02-28T20:18:42.004Z,3.20
2023-02-28T20:21:10.607Z,3.20
2023-02-28T20:23:39.282Z,3.10
2023-02-28T20:26:07.123Z,3.10
2023-02-28T20:28:34.822Z,3.10
2023-02-28T20:31:02.168Z,3.00
2023-02-28T20:33:29.591Z,3.00
2023-02-28T20:36:00.952Z,3.00
2023-02-28T20:38:28.535Z,3.00
2023-02-28T20:40:58.735Z,2.90
2023-02-28T20:43:26.537Z,2.80
2023-02-28T20:45:58.215Z,2.80
2023-02-28T20:48:26.037Z,2.80
2023-02-28T20:50:55.489Z,2.80
2023-02-28T20:53:26.705Z,2.80
2023-02-28T20:55:57.805Z,2.70
2023-02-28T20:58:28.948Z,2.60
2023-02-28T21:01:12.576Z,2.60
2023-02-28T21:03:40.310Z,2.50
2023-02-28T21:06:08.150Z,2.40
2023-02-28T21:08:36.796Z,2.40
2023-02-28T21:11:09.937Z,2.30
2023-02-28T21:13:38.382Z,2.30
2023-02-28T21:16:08.401Z,2.30
2023-02-28T21:18:37.037Z,2.30
2023-02-28T21:21:07.126Z,2.20
2023-02-28T21:23:34.617Z,2.20
2023-02-28T21:26:07.645Z,2.20
2023-02-28T21:28:35.489Z,2.20
2023-02-28T21:31:05.174Z,2.20
2023-02-28T21:33:32.925Z,2.20
2023-02-28T21:36:05.935Z,2.20
2023-02-28T21:38:35.051Z,2.20
2023-02-28T21:41:18.600Z,2.20
2023-02-28T21:43:47.008Z,2.10
2023-02-28T21:46:20.693Z,2.10
2023-02-28T21:48:49.054Z,2.10
2023-02-28T21:51:19.668Z,2.00
2023-02-28T21:53:48.438Z,2.00
2023-02-28T21:56:21.748Z,2.00
2023-02-28T21:58:49.915Z,2.00
2023-02-28T22:01:18.563Z,2.00
2023-02-28T22:03:47.666Z,2.00
2023-02-28T22:06:24.493Z,2.00
2023-02-28T22:08:56.680Z,2.00
2023-02-28T22:11:25.700Z,2.00
2023-02-28T22:13:56.023Z,1.90
2023-02-28T22:16:25.949Z,1.90
2023-02-28T22:18:53.888Z,2.00
2023-02-28T22:21:22.780Z,2.00
2023-02-28T22:23:50.644Z,2.00
2023-02-28T22:26:20.914Z,1.90
2023-02-28T22:28:48.984Z,1.90
2023-02-28T22:31:26.688Z,1.80
2023-02-28T22:33:56.811Z,1.80
2023-02-28T22:36:24.762Z,1.80
2023-02-28T22:38:52.828Z,1.70
2023-02-28T22:41:22.893Z,1.70
2023-02-28T22:43:56.685Z,1.70
2023-02-28T22:46:25.269Z,1.70
2023-02-28T22:48:52.889Z,1.70
2023-02-28T22:51:23.944Z,1.70
2023-02-28T22:53:52.689Z,1.70
2023-02-28T22:56:21.724Z,1.70
2023-02-28T22:58:57.619Z,1.60
2023-02-28T23:01:28.656Z,1.60
2023-02-28T23:03:56.549Z,1.60
2023-02-28T23:06:33.590Z,1.60
2023-02-28T23:09:04.217Z,1.60
2023-02-28T23:11:35.313Z,1.50
2023-02-28T23:14:03.431Z,1.50
2023-02-28T23:16:36.724Z,1.50
2023-02-28T23:19:07.465Z,1.50
2023-02-28T23:21:35.517Z,1.40
2023-02-28T23:24:04.881Z,1.40
2023-02-28T23:26:33.938Z,1.40
2023-02-28T23:29:01.569Z,1.30
2023-02-28T23:31:29.017Z,1.30
2023-02-28T23:33:57.420Z,1.30
2023-02-28T23:36:24.951Z,1.20
2023-02-28T23:38:52.816Z,1.20
2023-02-28T23:41:21.735Z,1.20
2023-02-28T23:43:51.397Z,1.20
2023-02-28T23:46:19.292Z,1.20
2023-02-28T23:48:46.804Z,1.20
2023-02-28T23:51:17.083Z,1.10
2023-02-28T23:53:47.174Z,1.10
2023-02-28T23:56:17.088Z,1.10
2023-02-28T23:58:45.849Z,1.10
